createdAt,value
2019-05-16T00:00:59.118Z,99.97
2019-05-16T00:03:28.645Z,100.00
2019-05-16T00:05:58.537Z,100.00
2019-05-16T00:08:28.603Z,99.22
2019-05-16T00:10:58.317Z,99.05
2019-05-16T00:13:28.192Z,99.42
2019-05-16T00:15:58.727Z,100.00
2019-05-16T00:18:28.618Z,100.00
2019-05-16T00:20:58.596Z,100.00
2019-05-16T00:23:28.939Z,100.00
2019-05-16T00:25:58.777Z,100.00
2019-05-16T00:28:28.721Z,100.00
2019-05-16T00:30:59.200Z,100.00
2019-05-16T00:33:28.816Z,100.00
2019-05-16T00:36:03.420Z,100.00
2019-05-16T00:38:29.435Z,100.00
2019-05-16T00:40:59.193Z,100.00
2019-05-16T00:43:28.974Z,100.00
2019-05-16T00:45:58.921Z,100.00
2019-05-16T00:48:29.045Z,100.00
2019-05-16T00:50:58.665Z,100.00
2019-05-16T00:53:30.153Z,100.00
2019-05-16T00:56:00.907Z,100.00
2019-05-16T00:58:31.838Z,100.00
2019-05-16T01:01:01.228Z,100.00
2019-05-16T01:03:31.824Z,100.00
2019-05-16T01:06:01.310Z,100.00
2019-05-16T01:08:30.702Z,100.00
2019-05-16T01:11:00.391Z,100.00
2019-05-16T01:13:29.891Z,100.00
2019-05-16T01:15:59.390Z,100.00
2019-05-16T01:18:28.965Z,100.00
2019-05-16T01:20:58.728Z,100.00
2019-05-16T01:23:28.492Z,100.00
2019-05-16T01:25:58.819Z,100.00
2019-05-16T01:28:28.570Z,100.00
2019-05-16T01:30:58.296Z,100.00
2019-05-16T01:33:28.185Z,100.00
2019-05-16T01:35:58.530Z,100.00
2019-05-16T01:38:28.634Z,100.00
2019-05-16T01:40:58.589Z,100.00
2019-05-16T01:43:28.481Z,100.00
2019-05-16T01:46:00.346Z,100.00
2019-05-16T01:48:29.890Z,100.00
2019-05-16T01:50:59.456Z,100.00
2019-05-16T01:53:28.843Z,100.00
2019-05-16T01:55:58.278Z,100.00
2019-05-16T01:58:28.977Z,100.00
2019-05-16T02:01:11.625Z,100.00
2019-05-16T02:03:29.859Z,100.00
2019-05-16T02:05:59.263Z,100.00
2019-05-16T02:08:28.808Z,100.00
2019-05-16T02:10:58.618Z,100.00
2019-05-16T02:13:28.583Z,100.00
2019-05-16T02:15:59.317Z,100.00
2019-05-16T02:18:29.087Z,100.00
2019-05-16T02:21:01.308Z,100.00
2019-05-16T02:23:29.769Z,100.00
2019-05-16T02:25:59.300Z,100.00
2019-05-16T02:28:33.655Z,100.00
2019-05-16T02:31:01.202Z,100.00
2019-05-16T02:33:32.272Z,100.00
2019-05-16T02:36:02.116Z,100.00
2019-05-16T02:38:31.951Z,100.00
2019-05-16T02:41:03.214Z,100.00
2019-05-16T02:43:32.729Z,100.00
2019-05-16T02:46:02.308Z,100.00
2019-05-16T02:48:35.453Z,100.00
2019-05-16T02:51:03.014Z,100.00
2019-05-16T02:53:32.560Z,100.00
2019-05-16T02:56:02.114Z,100.00
2019-05-16T02:58:31.490Z,100.00
2019-05-16T03:01:01.908Z,100.00
2019-05-16T03:03:32.188Z,100.00
2019-05-16T03:06:02.688Z,100.00
2019-05-16T03:08:33.161Z,100.00
2019-05-16T03:11:03.292Z,100.00
2019-05-16T03:13:36.038Z,100.00
2019-05-16T03:16:11.732Z,100.00
2019-05-16T03:18:41.560Z,100.00
2019-05-16T03:21:12.430Z,100.00
2019-05-16T03:23:42.384Z,100.00
2019-05-16T03:26:12.099Z,100.00
2019-05-16T03:28:41.635Z,100.00
2019-05-16T03:31:14.798Z,100.00
2019-05-16T03:33:50.546Z,100.00
2019-05-16T03:36:15.182Z,100.00
2019-05-16T03:38:44.597Z,100.00
2019-05-16T03:41:14.089Z,100.00
2019-05-16T03:43:43.529Z,100.00
2019-05-16T03:46:12.957Z,100.00
2019-05-16T03:48:43.513Z,100.00
2019-05-16T03:51:13.030Z,100.00
2019-05-16T03:53:42.493Z,100.00
2019-05-16T03:56:11.887Z,100.00
2019-05-16T03:58:41.891Z,100.00
2019-05-16T04:01:11.841Z,100.00
2019-05-16T04:03:41.708Z,100.00
2019-05-16T04:06:12.181Z,100.00
2019-05-16T04:08:42.591Z,100.00
2019-05-16T04:11:12.115Z,100.00
2019-05-16T04:13:41.742Z,100.00
2019-05-16T04:16:12.078Z,100.00
2019-05-16T04:18:42.115Z,100.00
2019-05-16T04:21:12.282Z,100.00
2019-05-16T04:23:42.250Z,100.00
2019-05-16T04:26:12.020Z,100.00
2019-05-16T04:28:41.680Z,100.00
2019-05-16T04:31:11.387Z,100.00
2019-05-16T04:33:41.724Z,100.00
2019-05-16T04:36:11.432Z,100.00
2019-05-16T04:38:46.147Z,100.00
2019-05-16T04:41:12.095Z,100.00
2019-05-16T04:43:41.889Z,100.00
2019-05-16T04:46:12.008Z,100.00
2019-05-16T04:48:41.983Z,100.00
2019-05-16T04:51:11.438Z,100.00
2019-05-16T04:53:42.605Z,100.00
2019-05-16T04:56:12.098Z,100.00
2019-05-16T04:58:44.159Z,100.00
2019-05-16T05:01:13.708Z,100.00
2019-05-16T05:04:00.144Z,100.00
2019-05-16T05:06:14.366Z,100.00
2019-05-16T05:08:54.501Z,100.00
2019-05-16T05:11:15.105Z,100.00
2019-05-16T05:13:44.548Z,100.00
2019-05-16T05:16:13.927Z,100.00
2019-05-16T05:18:44.613Z,100.00
2019-05-16T05:21:14.531Z,100.00
2019-05-16T05:23:43.941Z,100.00
2019-05-16T05:26:13.388Z,100.00
2019-05-16T05:28:42.932Z,100.00
2019-05-16T05:31:12.471Z,100.00
2019-05-16T05:33:41.927Z,100.00
2019-05-16T05:36:12.373Z,96.42
2019-05-16T05:38:42.639Z,95.53
2019-05-16T05:41:12.075Z,92.37
2019-05-16T05:43:41.611Z,91.56
2019-05-16T05:46:11.383Z,90.11
2019-05-16T05:48:41.239Z,87.31
2019-05-16T05:51:11.273Z,85.05
2019-05-16T05:53:41.102Z,82.87
2019-05-16T05:56:11.447Z,80.21
2019-05-16T05:58:41.000Z,78.60
2019-05-16T06:01:11.107Z,78.27
2019-05-16T06:03:40.901Z,79.96
2019-05-16T06:06:10.799Z,81.54
2019-05-16T06:08:40.874Z,80.51
2019-05-16T06:11:10.534Z,80.74
2019-05-16T06:13:40.562Z,79.95
2019-05-16T06:16:10.870Z,78.26
2019-05-16T06:18:40.537Z,76.87
2019-05-16T06:21:11.537Z,76.52
2019-05-16T06:23:41.217Z,75.82
2019-05-16T06:26:12.174Z,76.19
2019-05-16T06:28:41.986Z,78.79
2019-05-16T06:31:14.078Z,79.65
2019-05-16T06:33:42.713Z,78.84
2019-05-16T06:36:12.230Z,79.43
2019-05-16T06:38:42.084Z,79.17
2019-05-16T06:41:11.564Z,76.52
2019-05-16T06:43:40.974Z,77.10
2019-05-16T06:46:10.983Z,76.75
2019-05-16T06:48:40.717Z,75.87
2019-05-16T06:51:10.729Z,73.09
2019-05-16T06:53:40.561Z,71.72
2019-05-16T06:56:10.492Z,71.44
2019-05-16T06:58:48.074Z,71.78
2019-05-16T07:01:11.142Z,74.21
2019-05-16T07:03:40.620Z,73.03
2019-05-16T07:06:26.243Z,74.07
2019-05-16T07:08:41.270Z,73.82
2019-05-16T07:11:10.746Z,74.46
2019-05-16T07:13:40.681Z,73.29
2019-05-16T07:16:10.376Z,73.52
2019-05-16T07:18:40.360Z,70.65
2019-05-16T07:21:10.918Z,70.18
2019-05-16T07:23:40.691Z,70.97
2019-05-16T07:26:10.141Z,68.33
2019-05-16T07:28:40.580Z,64.85
2019-05-16T07:31:17.695Z,63.11
2019-05-16T07:33:41.708Z,63.64
2019-05-16T07:36:11.121Z,61.70
2019-05-16T07:38:40.709Z,65.61
2019-05-16T07:41:13.670Z,66.02
2019-05-16T07:43:41.377Z,63.93
2019-05-16T07:46:11.243Z,63.07
2019-05-16T07:48:40.839Z,66.71
2019-05-16T07:51:10.647Z,72.00
2019-05-16T07:53:40.441Z,70.60
2019-05-16T07:56:10.607Z,69.30
2019-05-16T07:58:41.379Z,67.80
2019-05-16T08:01:12.641Z,64.10
2019-05-16T08:03:44.144Z,61.46
2019-05-16T08:06:13.653Z,61.55
2019-05-16T08:08:43.109Z,62.61
2019-05-16T08:11:12.637Z,62.67
2019-05-16T08:13:42.034Z,62.57
2019-05-16T08:16:11.400Z,62.58
2019-05-16T08:18:44.974Z,61.58
2019-05-16T08:21:16.759Z,59.47
2019-05-16T08:23:44.191Z,59.59
2019-05-16T08:26:13.554Z,62.58
2019-05-16T08:28:43.043Z,62.67
2019-05-16T08:31:12.540Z,61.27
2019-05-16T08:33:42.125Z,61.93
2019-05-16T08:36:12.097Z,62.42
2019-05-16T08:38:43.318Z,62.44
2019-05-16T08:41:16.913Z,59.26
2019-05-16T08:43:43.954Z,59.31
2019-05-16T08:46:13.312Z,58.50
2019-05-16T08:48:42.726Z,58.35
2019-05-16T08:51:12.486Z,57.84
2019-05-16T08:56:13.395Z,55.98
2019-05-16T08:58:42.964Z,55.31
2019-05-16T09:01:15.523Z,56.33
2019-05-16T09:03:43.474Z,57.45
2019-05-16T09:06:12.884Z,58.82
2019-05-16T09:08:42.307Z,58.24
2019-05-16T09:10:14.343Z,56.35
2019-05-16T09:11:29.194Z,57.13
2019-05-16T09:13:42.798Z,56.72
2019-05-16T09:16:12.207Z,57.55
2019-05-16T09:18:45.797Z,57.25
2019-05-16T09:21:13.250Z,55.87
2019-05-16T09:23:42.644Z,54.26
2019-05-16T09:26:15.982Z,54.29
2019-05-16T09:28:43.189Z,53.76
2019-05-16T09:31:12.552Z,53.43
2019-05-16T09:33:42.047Z,54.60
2019-05-16T09:36:11.548Z,53.82
2019-05-16T09:38:41.082Z,54.48
2019-05-16T09:41:10.557Z,55.66
2019-05-16T09:43:39.997Z,56.74
2019-05-16T09:46:09.392Z,56.16
2019-05-16T09:48:38.877Z,53.37
2019-05-16T09:51:08.590Z,53.68
2019-05-16T09:53:37.979Z,53.01
2019-05-16T09:56:07.345Z,52.58
2019-05-16T09:58:37.433Z,52.37
2019-05-16T10:01:07.146Z,52.59
2019-05-16T10:03:37.223Z,51.14
2019-05-16T10:06:08.030Z,51.71
2019-05-16T10:08:37.730Z,51.48
2019-05-16T10:11:07.630Z,52.92
2019-05-16T10:13:37.719Z,50.90
2019-05-16T10:16:07.554Z,51.39
2019-05-16T10:18:37.238Z,51.02
2019-05-16T10:21:08.092Z,50.49
2019-05-16T10:23:37.785Z,50.69
2019-05-16T10:26:07.351Z,50.02
2019-05-16T10:28:38.276Z,49.83
2019-05-16T10:31:07.925Z,50.58
2019-05-16T10:33:38.938Z,51.64
2019-05-16T10:36:08.771Z,50.89
2019-05-16T10:38:38.145Z,52.54
2019-05-16T10:41:07.573Z,51.67
2019-05-16T10:43:37.235Z,50.84
2019-05-16T10:46:06.808Z,52.44
2019-05-16T10:48:37.662Z,51.88
2019-05-16T10:51:07.938Z,56.24
2019-05-16T10:54:00.457Z,57.08
2019-05-16T10:56:09.522Z,57.05
2019-05-16T10:59:00.756Z,56.38
2019-05-16T11:01:24.313Z,55.60
2019-05-16T11:03:41.591Z,57.05
2019-05-16T11:06:24.690Z,56.30
2019-05-16T11:08:42.253Z,55.97
2019-05-16T11:11:11.728Z,55.26
2019-05-16T11:13:41.101Z,55.54
2019-05-16T11:16:10.505Z,55.98
2019-05-16T11:18:40.056Z,57.86
2019-05-16T11:21:09.528Z,58.72
2019-05-16T11:23:38.924Z,58.53
2019-05-16T11:26:08.491Z,58.01
2019-05-16T11:28:37.972Z,56.43
2019-05-16T11:31:07.883Z,55.44
2019-05-16T11:33:37.478Z,56.10
2019-05-16T11:36:09.029Z,58.29
2019-05-16T11:38:39.714Z,59.29
2019-05-16T11:41:09.185Z,60.23
2019-05-16T11:43:38.773Z,59.99
2019-05-16T11:46:08.281Z,58.84
2019-05-16T11:48:38.003Z,58.91
2019-05-16T11:51:08.046Z,59.43
2019-05-16T11:53:37.980Z,60.29
2019-05-16T11:56:08.525Z,60.34
2019-05-16T11:58:37.980Z,61.32
2019-05-16T12:01:07.852Z,61.39
2019-05-16T12:03:37.682Z,61.00
2019-05-16T12:06:10.290Z,60.62
2019-05-16T12:08:38.404Z,61.32
2019-05-16T12:11:07.889Z,61.42
2019-05-16T12:13:37.468Z,62.64
2019-05-16T12:16:07.637Z,63.83
2019-05-16T12:18:37.592Z,63.68
2019-05-16T12:21:07.828Z,64.77
2019-05-16T12:23:37.772Z,63.64
2019-05-16T12:26:07.971Z,61.37
2019-05-16T12:28:37.560Z,61.95
2019-05-16T12:31:07.337Z,61.71
2019-05-16T12:33:37.787Z,62.04
2019-05-16T12:36:07.811Z,61.92
2019-05-16T12:38:38.129Z,61.81
2019-05-16T12:41:07.681Z,60.70
2019-05-16T12:43:46.279Z,60.65
2019-05-16T12:46:08.163Z,59.68
2019-05-16T12:48:37.756Z,59.19
2019-05-16T12:51:08.400Z,58.45
2019-05-16T12:53:38.479Z,58.86
2019-05-16T12:56:07.981Z,59.40
2019-05-16T12:58:40.973Z,58.33
2019-05-16T13:01:08.515Z,57.77
2019-05-16T13:03:38.348Z,58.29
2019-05-16T13:06:07.812Z,57.73
2019-05-16T13:08:37.635Z,56.33
2019-05-16T13:11:07.527Z,56.43
2019-05-16T13:13:37.683Z,58.16
2019-05-16T13:16:07.765Z,58.64
2019-05-16T13:18:37.297Z,58.62
2019-05-16T13:21:06.985Z,58.66
2019-05-16T13:23:36.597Z,59.97
2019-05-16T13:26:07.380Z,61.94
2019-05-16T13:28:37.782Z,62.52
2019-05-16T13:31:07.947Z,61.97
2019-05-16T13:33:37.630Z,62.35
2019-05-16T13:36:07.776Z,61.65
2019-05-16T13:38:37.253Z,61.97
2019-05-16T13:41:07.613Z,61.61
2019-05-16T13:43:37.715Z,62.25
2019-05-16T13:46:07.519Z,62.25
2019-05-16T13:48:37.759Z,61.36
2019-05-16T13:51:14.671Z,61.25
2019-05-16T13:53:38.557Z,61.17
2019-05-16T13:56:13.093Z,61.55
2019-05-16T13:58:39.267Z,61.94
2019-05-16T14:01:08.820Z,61.24
2019-05-16T14:03:38.342Z,61.91
2019-05-16T14:06:07.797Z,62.01
2019-05-16T14:08:37.529Z,62.11
2019-05-16T14:11:09.792Z,61.89
2019-05-16T14:13:38.314Z,62.40
2019-05-16T14:16:07.894Z,62.78
2019-05-16T14:18:38.068Z,62.41
2019-05-16T14:21:07.753Z,62.62
2019-05-16T14:23:37.954Z,63.58
2019-05-16T14:26:07.825Z,63.90
2019-05-16T14:28:37.827Z,63.36
2019-05-16T14:31:07.636Z,62.43
2019-05-16T14:33:37.027Z,61.99
2019-05-16T14:36:07.433Z,62.23
2019-05-16T14:38:37.577Z,62.03
2019-05-16T14:41:08.170Z,61.93
2019-05-16T14:43:37.766Z,63.13
2019-05-16T14:46:09.692Z,63.64
2019-05-16T14:48:38.379Z,64.31
2019-05-16T14:51:07.882Z,65.08
2019-05-16T14:53:38.076Z,66.59
2019-05-16T14:56:07.689Z,66.39
2019-05-16T14:58:38.043Z,66.67
2019-05-16T15:01:07.709Z,66.79
2019-05-16T15:03:37.292Z,66.29
2019-05-16T15:06:08.460Z,65.25
2019-05-16T15:08:38.059Z,65.30
2019-05-16T15:11:07.766Z,65.13
2019-05-16T15:13:37.382Z,66.04
2019-05-16T15:16:07.627Z,66.31
2019-05-16T15:18:38.399Z,66.85
2019-05-16T15:21:09.021Z,66.82
2019-05-16T15:23:38.597Z,66.11
2019-05-16T15:26:09.480Z,64.97
2019-05-16T15:28:38.980Z,65.36
2019-05-16T15:31:08.361Z,64.75
2019-05-16T15:33:37.866Z,64.25
2019-05-16T15:36:08.656Z,64.62
2019-05-16T15:38:38.332Z,65.16
2019-05-16T15:41:08.517Z,64.74
2019-05-16T15:43:38.206Z,64.18
2019-05-16T15:46:08.717Z,63.76
2019-05-16T15:48:38.308Z,64.35
2019-05-16T15:51:08.970Z,65.34
2019-05-16T15:53:41.581Z,66.18
2019-05-16T15:56:10.992Z,65.83
2019-05-16T15:58:40.458Z,64.88
2019-05-16T16:01:10.018Z,65.40
2019-05-16T16:03:39.430Z,65.47
2019-05-16T16:06:08.923Z,65.86
2019-05-16T16:08:38.389Z,65.82
2019-05-16T16:11:07.878Z,66.29
2019-05-16T16:13:37.756Z,65.94
2019-05-16T16:16:09.809Z,65.88
2019-05-16T16:18:38.578Z,65.80
2019-05-16T16:21:07.960Z,65.78
2019-05-16T16:23:37.623Z,67.30
2019-05-16T16:26:07.482Z,69.10
2019-05-16T16:28:38.164Z,68.48
2019-05-16T16:31:08.101Z,69.13
2019-05-16T16:33:37.777Z,68.66
2019-05-16T16:36:07.938Z,69.19
2019-05-16T16:38:37.641Z,69.88
2019-05-16T16:41:08.031Z,69.99
2019-05-16T16:43:37.958Z,70.40
2019-05-16T16:46:12.992Z,70.73
2019-05-16T16:48:38.532Z,70.88
2019-05-16T16:51:07.915Z,70.86
2019-05-16T16:53:37.946Z,71.30
2019-05-16T16:56:07.804Z,71.09
2019-05-16T16:58:37.587Z,69.64
2019-05-16T17:01:07.954Z,67.93
2019-05-16T17:03:37.529Z,68.08
2019-05-16T17:06:07.488Z,67.04
2019-05-16T17:08:37.693Z,66.92
2019-05-16T17:11:07.868Z,66.84
2019-05-16T17:13:37.384Z,66.08
2019-05-16T17:16:21.208Z,66.20
2019-05-16T17:18:38.237Z,66.19
2019-05-16T17:21:08.145Z,65.58
2019-05-16T17:23:37.659Z,65.73
2019-05-16T17:26:07.534Z,65.72
2019-05-16T17:28:37.543Z,66.32
2019-05-16T17:31:07.441Z,66.34
2019-05-16T17:33:38.211Z,66.91
2019-05-16T17:36:09.521Z,67.56
2019-05-16T17:38:42.382Z,68.28
2019-05-16T17:41:11.786Z,68.86
2019-05-16T17:43:41.303Z,69.41
2019-05-16T17:46:10.787Z,69.62
2019-05-16T17:48:40.152Z,69.15
2019-05-16T17:51:09.540Z,69.48
2019-05-16T17:53:39.169Z,69.67
2019-05-16T17:56:08.795Z,69.90
2019-05-16T17:58:38.393Z,70.11
2019-05-16T18:01:09.301Z,70.40
2019-05-16T18:03:38.836Z,70.34
2019-05-16T18:06:08.307Z,70.60
2019-05-16T18:08:37.824Z,70.84
2019-05-16T18:11:07.433Z,71.12
2019-05-16T18:13:37.233Z,71.47
2019-05-16T18:16:07.503Z,72.13
2019-05-16T18:18:37.587Z,72.51
2019-05-16T18:21:09.445Z,72.84
2019-05-16T18:23:38.866Z,73.19
2019-05-16T18:26:08.318Z,72.94
2019-05-16T18:28:37.865Z,73.25
2019-05-16T18:31:07.478Z,72.94
2019-05-16T18:33:37.255Z,72.63
2019-05-16T18:36:07.634Z,72.55
2019-05-16T18:38:37.562Z,72.63
2019-05-16T18:41:07.841Z,72.90
2019-05-16T18:43:37.387Z,72.94
2019-05-16T18:46:07.422Z,73.15
2019-05-16T18:48:37.054Z,73.26
2019-05-16T18:51:06.835Z,73.40
2019-05-16T18:53:37.477Z,73.81
2019-05-16T18:56:07.949Z,73.62
2019-05-16T18:58:37.467Z,73.59
2019-05-16T19:01:07.075Z,73.58
2019-05-16T19:03:36.456Z,73.93
2019-05-16T19:06:07.723Z,73.80
2019-05-16T19:08:37.079Z,73.83
2019-05-16T19:11:07.621Z,73.69
2019-05-16T19:13:37.239Z,74.34
2019-05-16T19:16:06.653Z,74.39
2019-05-16T19:18:36.865Z,74.65
2019-05-16T19:21:07.542Z,74.99
2019-05-16T19:23:37.690Z,75.34
2019-05-16T19:26:07.514Z,76.04
2019-05-16T19:28:37.531Z,75.90
2019-05-16T19:31:07.404Z,76.41
2019-05-16T19:33:37.079Z,76.77
2019-05-16T19:36:07.306Z,76.39
2019-05-16T19:38:37.615Z,77.03
2019-05-16T19:41:07.983Z,77.03
2019-05-16T19:43:37.770Z,77.61
2019-05-16T19:46:07.278Z,77.61
2019-05-16T19:48:37.161Z,78.87
2019-05-16T19:51:07.501Z,78.87
2019-05-16T19:53:37.246Z,79.97
2019-05-16T19:56:07.399Z,79.97
2019-05-16T19:58:37.389Z,79.73
2019-05-16T20:01:06.941Z,79.45
2019-05-16T20:03:36.598Z,79.66
2019-05-16T20:06:07.588Z,80.13
2019-05-16T20:08:37.610Z,80.71
2019-05-16T20:11:07.331Z,81.16
2019-05-16T20:13:36.893Z,82.06
2019-05-16T20:16:06.391Z,82.71
2019-05-16T20:18:37.369Z,82.96
2019-05-16T20:21:06.932Z,83.36
2019-05-16T20:23:37.043Z,83.41
2019-05-16T20:26:07.749Z,82.86
2019-05-16T20:28:37.650Z,82.86
2019-05-16T20:31:08.006Z,82.97
2019-05-16T20:33:37.836Z,82.88
2019-05-16T20:36:09.419Z,82.25
2019-05-16T20:38:38.592Z,82.84
2019-05-16T20:41:08.209Z,82.31
2019-05-16T20:43:37.606Z,82.33
2019-05-16T20:46:07.442Z,82.80
2019-05-16T20:48:37.143Z,83.92
2019-05-16T20:51:07.230Z,84.80
2019-05-16T20:53:37.511Z,85.44
2019-05-16T20:56:07.189Z,86.17
2019-05-16T20:58:36.560Z,87.45
2019-05-16T21:01:07.067Z,88.98
2019-05-16T21:03:37.797Z,90.04
2019-05-16T21:06:08.614Z,89.06
2019-05-16T21:08:38.392Z,89.09
2019-05-16T21:11:07.777Z,89.53
2019-05-16T21:13:37.237Z,90.13
2019-05-16T21:16:07.299Z,90.44
2019-05-16T21:18:37.662Z,91.87
2019-05-16T21:21:07.806Z,92.80
2019-05-16T21:23:37.400Z,93.38
2019-05-16T21:26:06.866Z,93.19
2019-05-16T21:28:36.884Z,94.57
2019-05-16T21:31:07.448Z,95.70
2019-05-16T21:33:37.304Z,96.96
2019-05-16T21:36:07.275Z,98.09
2019-05-16T21:38:37.116Z,99.33
2019-05-16T21:41:07.219Z,100.00
2019-05-16T21:43:37.675Z,100.00
2019-05-16T21:46:07.492Z,100.00
2019-05-16T21:48:37.118Z,100.00
2019-05-16T21:51:07.935Z,100.00
2019-05-16T21:53:37.686Z,100.00
2019-05-16T21:56:07.239Z,100.00
2019-05-16T21:58:37.272Z,100.00
2019-05-16T22:01:09.162Z,100.00
2019-05-16T22:03:38.634Z,100.00
2019-05-16T22:06:08.253Z,100.00
2019-05-16T22:08:37.643Z,100.00
2019-05-16T22:11:07.138Z,100.00
2019-05-16T22:13:37.305Z,100.00
2019-05-16T22:16:08.040Z,100.00
2019-05-16T22:18:38.499Z,100.00
2019-05-16T22:21:08.299Z,100.00
2019-05-16T22:23:37.842Z,100.00
2019-05-16T22:26:07.784Z,100.00
2019-05-16T22:28:37.647Z,99.64
2019-05-16T22:31:07.609Z,99.51
2019-05-16T22:33:37.583Z,98.88
2019-05-16T22:36:07.264Z,98.59
2019-05-16T22:38:36.774Z,98.64
2019-05-16T22:41:07.326Z,98.18
2019-05-16T22:43:37.504Z,98.11
2019-05-16T22:46:10.040Z,98.04
2019-05-16T22:48:38.336Z,97.76
2019-05-16T22:51:07.829Z,97.47
2019-05-16T22:53:37.388Z,97.42
2019-05-16T22:56:07.497Z,97.08
2019-05-16T22:58:37.067Z,96.74
2019-05-16T23:01:07.002Z,96.16
2019-05-16T23:03:38.038Z,96.10
2019-05-16T23:06:08.003Z,96.66
2019-05-16T23:08:37.432Z,97.07
2019-05-16T23:11:07.431Z,97.18
2019-05-16T23:13:37.182Z,97.83
2019-05-16T23:16:06.971Z,99.10
2019-05-16T23:18:37.444Z,100.00
2019-05-16T23:21:07.139Z,100.00
2019-05-16T23:23:37.241Z,100.00
2019-05-16T23:26:07.131Z,100.00
2019-05-16T23:28:36.943Z,100.00
2019-05-16T23:31:06.421Z,100.00
2019-05-16T23:33:36.512Z,100.00
2019-05-16T23:36:07.103Z,100.00
2019-05-16T23:38:37.127Z,100.00
2019-05-16T23:41:06.840Z,100.00
2019-05-16T23:43:37.328Z,100.00
2019-05-16T23:46:07.308Z,100.00
2019-05-16T23:48:36.924Z,100.00
2019-05-16T23:51:07.755Z,100.00
2019-05-16T23:53:37.535Z,100.00
2019-05-16T23:56:07.585Z,100.00
2019-05-16T23:58:37.277Z,100.00
